Weather observations for the past three days for
Ionia County Airport
Imperial (Metric)
Date Time (edt) Wind (mph) Vis. (mi.) Weather Sky Cond. Temperature (ºF) Relative Humidity Wind Chill (°F) Heat Index (°F) Pressure Precipitation (in)
Air Dwpt 6 hour altimeter (in) sea level (mb) 1 hr 3 hr 6 hr
Max. Min.
09 17:15 W 29 G 35 10.00 A Few Clouds and Windy FEW065 66.2 39.2 37% 29.62 0.0
09 16:55 W 16 G 23 10.00 Fair CLR 66.2 41 40% 29.62 0.0
09 16:35 W 17 G 28 10.00 A Few Clouds FEW060 66.2 41 40% 29.62 0.0
09 16:15 SW 21 G 29 10.00 Fair and Breezy CLR 68 41 38% 29.62 0.0
09 15:55 W 17 G 29 10.00 A Few Clouds FEW070 FEW090 66.2 41 40% 29.61 0.0
09 15:35 SW 24 G 30 10.00 Mostly Cloudy and Breezy FEW070 BKN090 68 37.4 33% 29.61 0.0
09 15:15 SW 20 10.00 Partly Cloudy SCT090 68 39.2 35% 29.61 0.0
09 14:55 SW 18 G 28 10.00 Overcast SCT070 OVC090 64.4 39.2 40% 29.61 0.0
09 14:35 W 23 G 30 10.00 Overcast and Breezy OVC065 62.6 39.2 42% 29.62 0.0
09 14:15 SW 22 G 28 10.00 Mostly Cloudy and Breezy SCT031 SCT045 BKN060 62.6 39.2 42% 29.62 0.0
09 13:55 W 20 G 26 10.00 Partly Cloudy FEW060 SCT075 SCT090 60.8 39.2 67.1 53.2 45% 29.63 0.0
09 13:35 W 15 10.00 Partly Cloudy SCT075 SCT090 60.8 41 48% 29.64 0.0
09 13:15 W 18 10.00 Fair CLR 60.8 42.8 52% 29.63 0.0
09 12:55 W 18 G 29 10.00 Fair CLR 60.8 42.8 52% 29.63 0.0
09 12:35 W 22 G 26 10.00 Partly Cloudy and Breezy SCT042 64.4 44.6 49% 29.62 0.0
09 12:15 W 23 G 30 10.00 Partly Cloudy and Breezy SCT042 66.2 46.4 49% 29.61 0.0
09 11:55 W 22 G 29 10.00 Partly Cloudy and Breezy SCT040 66.2 46.4 49% 29.59 0.0
09 11:35 SW 22 10.00 Partly Cloudy and Breezy SCT040 66.2 48.2 52% 29.57 0.0
09 11:15 W 22 G 31 10.00 Fair and Breezy CLR 64.4 48.2 56% 29.57 0.0
09 10:55 SW 22 G 30 10.00 Fair and Breezy CLR 64.4 48.2 56% 29.56 0.0
09 10:35 SW 24 G 31 10.00 Fair and Breezy CLR 64.4 46.4 52% 29.58 0.0
09 10:15 SW 20 G 31 10.00 A Few Clouds FEW100 62.6 46.4 56% 29.57 0.0
09 09:55 SW 16 10.00 Partly Cloudy SCT100 60.8 48.2 63% 29.59 0.0
09 09:35 SW 18 10.00 A Few Clouds FEW100 FEW120 57.2 48.2 72% 29.59 0.0
09 09:15 SW 17 G 22 10.00 A Few Clouds FEW120 57.2 48.2 72% 29.59 0.0
09 08:55 S 17 G 23 10.00 Partly Cloudy SCT110 55.4 48.2 77% 29.59 0.0
09 08:35 S 17 G 24 10.00 Mostly Cloudy BKN110 55.4 48.2 77% 29.59 0.0
09 08:15 S 17 G 23 10.00 Mostly Cloudy FEW080 BKN100 53.6 48.2 82% 29.6 0.0
09 07:55 SW 18 G 24 10.00 Mostly Cloudy SCT090 BKN110 53.6 48.2 53.4 47.1 82% 29.6 0.0
09 07:35 S 16 10.00 Partly Cloudy FEW095 SCT110 53.6 48.2 82% 29.6 0.0
09 07:15 S 15 10.00 A Few Clouds FEW085 51.8 48.2 88% 29.6 0.0
09 06:55 S 12 10.00 Fair CLR 51.8 48.2 88% 29.61 0.0
09 06:35 S 13 10.00 Fair CLR 51.8 46.4 82% 29.61 0.0
09 06:15 S 14 10.00 Fair CLR 50 46.4 88% 45 29.62 0.0
09 05:55 S 9 10.00 A Few Clouds FEW120 50 46.4 88% 47 29.62 0.0
09 05:35 S 12 10.00 A Few Clouds FEW110 50 46.4 88% 46 29.63 0.0
09 05:15 S 10 10.00 Mostly Cloudy BKN110 50 46.4 88% 46 29.63 0.0
09 04:55 S 9 10.00 Partly Cloudy SCT100 50 44.6 82% 47 29.64 0.0
09 04:35 S 9 10.00 Fair CLR 50 44.6 82% 47 29.65 0.0
09 04:15 SW 9 10.00 Fair CLR 50 44.6 82% 47 29.66 0.0
09 03:55 SW 9 10.00 Fair CLR 50 42.8 76% 47 29.66 0.0
09 03:35 SW 10 10.00 Fair CLR 50 42.8 76% 46 29.66 0.0
09 03:15 S 13 10.00 Fair CLR 50 39.2 67% 46 29.66 0.0
09 02:55 S 10 10.00 Fair CLR 50 33.8 54% 46 29.67 0.0
09 02:35 S 8 10.00 Fair CLR 50 26.6 40% 47 29.68 0.0
09 02:15 S 9 10.00 Fair CLR 50 24.8 37% 47 29.68 0.0
09 01:55 S 9 10.00 Fair CLR 48.2 24.8 60.1 43 40% 45 29.68 0.0
09 01:35 S 12 10.00 Fair CLR 50 23 35% 46 29.69 0.0
09 01:15 S 10 10.00 Fair CLR 50 24.8 37% 46 29.69 0.0
09 00:55 S 10 10.00 Fair CLR 50 24.8 37% 46 29.7 0.0
09 00:35 S 9 10.00 Fair CLR 48.2 26.6 43% 45 29.7 0.0
09 00:15 S 7 10.00 Fair CLR 48.2 28.4 46% 46 29.71 0.0
08 23:55 S 7 10.00 Fair CLR 48.2 28.4 46% 46 29.71 0.0
08 23:35 S 6 10.00 Fair CLR 48.2 30.2 50% 46 29.71 0.0
08 23:15 S 6 10.00 Fair CLR 46.4 30.2 53% 44 29.72 0.0
08 22:55 S 6 10.00 Fair CLR 46.4 30.2 53% 44 29.73 0.0
08 22:35 S 6 10.00 Fair CLR 46.4 30.2 53% 44 29.73 0.0
08 22:15 S 5 10.00 Fair CLR 48.2 30.2 50% 47 29.73 0.0
08 21:55 S 5 10.00 Fair CLR 51.8 28.4 41% 29.73 0.0
08 21:35 S 6 10.00 Fair CLR 48.2 30.2 50% 46 29.73 0.0
08 21:15 SW 3 10.00 Fair CLR 55.4 26.6 33% 29.73 0.0
08 20:55 W 5 10.00 Fair CLR 55.4 26.6 33% 29.73 0.0
08 20:35 W 7 10.00 Fair CLR 59 24.8 27% 29.73 0.0
08 20:15 W 6 10.00 Fair CLR 59 24.8 27% 29.73 0.0
08 19:55 W 8 10.00 Fair CLR 60.8 23 64.8 60.1 23% 29.73 0.0
08 19:35 W 15 10.00 Fair CLR 60.8 23 23% 29.73 0.0
08 19:15 W 13 10.00 Fair CLR 62.6 21.2 20% 29.73 0.0
08 18:55 SW 16 10.00 Fair CLR 62.6 23 22% 29.72 0.0
08 18:35 SW 13 10.00 Fair CLR 62.6 23 22% 29.72 0.0
08 18:15 SW 13 10.00 Fair CLR 62.6 23 22% 29.73 0.0
08 17:55 SW 15 G 18 10.00 Fair CLR 64.4 23 21% 29.73 0.0
08 17:35 SW 18 10.00 Fair CLR 64.4 21.2 19% 29.73 0.0
08 17:15 W 14 10.00 Fair CLR 64.4 19.4 18% 29.73 0.0
08 16:55 W 16 10.00 Fair CLR 64.4 23 21% 29.73 0.0
08 16:35 W 15 G 20 10.00 Fair CLR 64.4 21.2 19% 29.74 0.0
08 16:15 W 15 G 21 10.00 Fair CLR 64.4 24.8 22% 29.75 0.0
08 15:55 SW 15 G 22 10.00 Fair CLR 64.4 24.8 22% 29.75 0.0
08 15:35 SW 13 G 17 10.00 Fair CLR 62.6 24.8 24% 29.76 0.0
08 15:15 W 17 10.00 Fair CLR 62.6 24.8 24% 29.77 0.0
08 14:55 W 14 10.00 Fair CLR 62.6 26.6 25% 29.78 0.0
08 14:35 SW 13 10.00 Fair CLR 62.6 24.8 24% 29.79 0.0
08 14:15 Vrbl 6 10.00 Fair CLR 60.8 24.8 25% 29.79 0.0
08 13:55 W 10 G 17 10.00 Fair CLR 60.8 24.8 62.2 40.1 25% 29.8 0.0
08 13:35 SW 12 G 21 10.00 Fair CLR 60.8 26.6 27% 29.81 0.0
08 13:15 Vrbl 3 10.00 Fair CLR 59 24.8 27% 29.82 0.0
08 12:55 W 8 10.00 Fair CLR 60.8 28.4 29% 29.83 0.0
08 12:35 W 8 10.00 Fair CLR 59 28.4 31% 29.84 0.0
08 12:15 SW 6 10.00 Fair CLR 59 26.6 29% 29.84 0.0
08 11:55 SW 13 10.00 Fair CLR 57.2 26.6 31% 29.85 0.0
08 11:35 SW 8 G 18 10.00 Fair CLR 57.2 26.6 31% 29.85 0.0
08 11:15 W 8 10.00 Fair CLR 57.2 26.6 31% 29.85 0.0
08 10:55 SW 9 10.00 Fair CLR 55.4 23 28% 29.86 0.0
08 10:35 SW 7 10.00 Fair CLR 53.6 32 44% 29.86 0.0
08 10:15 SW 5 10.00 Fair CLR 53.6 33.8 47% 29.87 0.0
08 09:55 S 5 10.00 Fair CLR 51.8 33.8 50% 29.87 0.0
08 09:35 S 5 10.00 Fair CLR 50 33.8 54% 49 29.87 0.0
08 09:15 S 6 10.00 Fair CLR 48.2 32 54% 46 29.88 0.0
08 08:55 S 6 10.00 Fair CLR 48.2 33.8 58% 46 29.88 0.0
08 08:35 S 7 10.00 Fair CLR 46.4 33.8 62% 43 29.87 0.0
08 08:15 S 3 10.00 Fair CLR 42.8 37.4 81% 29.87 0.0
08 07:55 S 2 10.00 Fair CLR 41 35.6 42.8 33.3 81% 29.86 0.0
08 07:35 S 1 10.00 Fair CLR 37.4 35.6 93% 29.86 0.0
08 07:15 SW 1 10.00 Fair CLR 35.6 33.8 93% 29.86 0.0
08 06:55 N 2 8.00 Fair CLR 33.8 33.8 100% 29.85 0.0
08 06:35 N 1 10.00 Fair CLR 33.8 32 93% 29.85 0.0
08 06:15 N 1 10.00 Fair CLR 33.8 32 93% 29.85 0.0
08 05:55 NW 1 10.00 Fair CLR 35.6 32 87% 29.85 0.0
08 05:35 N 2 10.00 Fair CLR 35.6 33.8 93% 29.86 0.0
08 05:15 NW 1 10.00 Fair CLR 35.6 33.8 93% 29.86 0.0
08 04:55 W 2 10.00 Fair CLR 35.6 33.8 93% 29.86 0.0
08 04:35 W 1 10.00 Fair CLR 37.4 33.8 87% 29.86 0.0
08 04:15 Calm 10.00 Fair CLR 37.4 33.8 87% 29.86 0.0
08 03:55 S 2 10.00 A Few Clouds FEW090 39.2 33.8 81% 29.86 0.0
08 03:35 S 3 10.00 Mostly Cloudy BKN100 41 33.8 76% 29.87 0.0
08 03:15 S 2 10.00 Overcast OVC100 41 33.8 76% 29.87 0.0
08 02:55 SW 2 10.00 Overcast OVC100 41 33.8 76% 29.87 0.0
08 02:35 S 2 10.00 Overcast OVC100 39.2 33.8 81% 29.87 0.0
08 02:15 S 2 10.00 Mostly Cloudy BKN100 41 33.8 76% 29.87 0.0
08 01:55 S 1 10.00 Mostly Cloudy SCT075 BKN100 42.8 33.8 51.4 41.5 71% 29.88 0.0
08 01:35 Calm 10.00 Overcast OVC075 42.8 32 66% 29.88 0.0
08 01:15 E 1 10.00 Overcast OVC075 42.8 32 66% 29.88 0.0
08 00:55 E 1 10.00 Overcast FEW065 OVC085 44.6 32 61% 29.88 0.0
08 00:35 NE 2 10.00 Overcast SCT048 BKN070 OVC085 44.6 32 61% 29.88 0.0
08 00:15 NE 2 10.00 Overcast SCT046 OVC070 44.6 32 61% 29.88 0.0
07 23:55 NE 3 10.00 Overcast BKN080 OVC090 44.6 32 61% 29.87 0.0
07 23:35 NE 5 10.00 Overcast OVC080 44.6 32 61% 43 29.87 0.0
07 23:15 NE 5 10.00 Overcast OVC080 44.6 32 61% 43 29.87 0.0
07 22:55 NE 5 10.00 Mostly Cloudy FEW050 FEW060 BKN080 44.6 33.8 66% 43 29.88 0.0
07 22:35 NE 6 10.00 Overcast SCT050 SCT060 OVC090 44.6 33.8 66% 42 29.87 0.0
07 22:15 N 3 10.00 Overcast OVC090 46.4 32 57% 29.86 0.0
07 21:55 N 3 10.00 Overcast SCT070 OVC090 46.4 32 57% 29.86 0.0
07 21:35 N 3 10.00 Mostly Cloudy FEW070 SCT080 BKN090 46.4 32 57% 29.85 0.0
07 21:15 N 3 10.00 Mostly Cloudy SCT055 BKN090 48.2 32 54% 29.84 0.0
07 20:55 N 3 10.00 Overcast BKN055 BKN075 OVC090 48.2 30.2 50% 29.84 0.0
07 20:35 N 2 10.00 Overcast BKN055 OVC070 50 30.2 47% 29.84 0.0
07 20:15 W 5 10.00 Mostly Cloudy BKN060 BKN070 51.8 30.2 44% 29.84 0.0
07 19:55 W 7 10.00 Mostly Cloudy SCT070 BKN085 51.8 28.4 55.8 50.5 41% 29.84 0.0
07 19:35 W 9 10.00 Overcast SCT055 OVC070 51.8 28.4 41% 29.84 0.0
07 19:15 W 7 10.00 Overcast BKN050 BKN070 OVC080 51.8 28.4 41% 29.85 0.0
07 18:55 W 13 10.00 Mostly Cloudy BKN075 51.8 28.4 41% 29.85 0.0
07 18:35 W 12 10.00 Overcast OVC065 53.6 28.4 38% 29.86 0.0
07 18:15 W 13 10.00 Mostly Cloudy BKN065 BKN080 53.6 28.4 38% 29.86 0.0
07 17:55 W 12 G 18 10.00 Partly Cloudy FEW065 SCT080 53.6 28.4 38% 29.85 0.0
07 17:35 W 14 G 25 10.00 Mostly Cloudy BKN065 55.4 28.4 36% 29.85 0.0
07 17:15 W 16 10.00 Overcast BKN065 OVC080 53.6 26.6 35% 29.86 0.0
07 16:55 W 15 10.00 Mostly Cloudy BKN065 BKN080 53.6 26.6 35% 29.86 0.0
07 16:35 NW 14 G 20 10.00 Mostly Cloudy BKN065 55.4 26.6 33% 29.87 0.0
07 16:15 W 18 10.00 Partly Cloudy SCT065 SCT075 55.4 28.4 36% 29.87 0.0
07 15:55 W 20 G 24 10.00 Partly Cloudy FEW075 SCT085 55.4 26.6 33% 29.88 0.0
07 15:35 W 16 10.00 Overcast SCT060 BKN075 OVC085 51.8 26.6 38% 29.88 0.0
07 15:15 W 18 G 25 10.00 Overcast SCT060 OVC075 51.8 24.8 35% 29.89 0.0
07 14:55 W 18 G 25 10.00 Overcast SCT060 OVC080 51.8 26.6 38% 29.89 0.0
07 14:35 W 18 G 25 10.00 Mostly Cloudy SCT060 BKN080 51.8 24.8 35% 29.89 0.0
07 14:15 W 18 G 28 10.00 Overcast BKN060 OVC080 53.6 26.6 35% 29.89 0.0
07 13:55 W 15 G 24 10.00 Mostly Cloudy SCT060 BKN070 51.8 26.6 53.6 41 38% 29.89 0.0
07 13:35 W 20 10.00 Mostly Cloudy BKN060 BKN070 51.8 28.4 41% 29.89 0.0
07 13:15 W 14 G 32 10.00 Mostly Cloudy BKN060 BKN070 51.8 24.8 35% 29.9 0.0
07 12:55 W 18 G 23 10.00 Overcast OVC055 51.8 26.6 38% 29.92 0.0
07 12:35 W 13 G 21 10.00 Overcast OVC055 51.8 26.6 38% 29.92 0.0
07 12:15 W 17 10.00 Overcast OVC055 51.8 26.6 38% 29.92 0.0
07 11:55 W 15 G 24 10.00 Mostly Cloudy BKN055 50 26.6 40% 45 29.93 0.0
07 11:35 W 15 G 25 10.00 Partly Cloudy SCT055 SCT065 50 26.6 40% 45 29.92 0.0
07 11:15 W 16 G 24 10.00 Mostly Cloudy BKN049 48.2 26.6 43% 43 29.93 0.0
07 10:55 W 15 G 20 10.00 Mostly Cloudy BKN049 48.2 26.6 43% 43 29.93 0.0
07 10:35 W 10 G 26 10.00 Overcast OVC047 48.2 28.4 46% 44 29.93 0.0
07 10:15 W 18 G 23 10.00 Mostly Cloudy BKN045 48.2 28.4 46% 42 29.93 0.0
07 09:55 W 10 10.00 Fair CLR 48.2 30.2 50% 44 29.93 0.0
07 09:35 W 9 10.00 Fair CLR 46.4 32 57% 42 29.93 0.0
07 09:15 W 10 10.00 Fair CLR 46.4 32 57% 42 29.93 0.0
07 08:55 W 9 10.00 Fair CLR 44.6 32 61% 40 29.93 0.0
07 08:35 W 10 10.00 Fair CLR 42.8 32 66% 38 29.92 0.0
07 08:15 W 9 10.00 Fair CLR 42.8 32 66% 38 29.92 0.0
07 07:55 W 10 10.00 Fair CLR 41 32 45.1 35.2 70% 35 29.92 0.0
07 07:35 W 8 10.00 Fair CLR 39.2 32 75% 34 29.91 0.0
07 07:15 W 7 10.00 Fair CLR 37.4 30.2 75% 33 29.91 0.0
07 06:55 W 7 10.00 Fair CLR 35.6 30.2 81% 31 29.9 0.0
07 06:35 SW 8 10.00 Partly Cloudy SCT070 35.6 30.2 81% 30 29.9 0.0
07 06:15 W 8 10.00 Mostly Cloudy BKN070 35.6 30.2 81% 30 29.9 0.0
07 05:55 W 7 10.00 Mostly Cloudy BKN070 37.4 30.2 75% 33 29.89 0.0
07 05:35 W 7 10.00 Partly Cloudy SCT070 39.2 30.2 70% 35 29.9 0.0
07 05:15 W 7 10.00 A Few Clouds FEW070 39.2 30.2 70% 35 29.9 0.0
07 04:55 W 7 10.00 Fair CLR 41 30.2 66% 37 29.9 0.0
07 04:35 W 7 10.00 Fair CLR 41 30.2 66% 37 29.9 0.0
07 04:15 W 8 10.00 Fair CLR 41 30.2 66% 36 29.9 0.0
07 03:55 W 9 10.00 Fair CLR 42.8 30.2 61% 38 29.9 0.0
07 03:35 W 9 10.00 Partly Cloudy SCT090 42.8 28.4 57% 38 29.9 0.0
07 03:15 W 7 10.00 Overcast OVC090 44.6 28.4 53% 41 29.9 0.0
07 02:55 W 6 10.00 Overcast FEW075 OVC090 44.6 28.4 53% 42 29.9 0.0
07 02:35 W 5 10.00 Overcast SCT075 OVC090 44.6 28.4 53% 43 29.91 0.0
07 02:15 W 6 10.00 Overcast BKN075 OVC090 44.6 30.2 57% 42 29.91 0.0
07 01:55 W 5 10.00 Overcast BKN075 OVC090 44.6 28.4 50.9 44.1 53% 43 29.91 0.0
07 01:35 W 5 10.00 Overcast OVC075 44.6 28.4 53% 43 29.92 0.0
07 01:15 W 5 10.00 Overcast BKN075 OVC100 44.6 28.4 53% 43 29.92 0.0
07 00:55 W 5 10.00 Overcast FEW075 OVC100 44.6 28.4 53% 43 29.92 0.0
07 00:35 W 6 10.00 Overcast OVC100 44.6 26.6 49% 42 29.92 0.0
07 00:15 W 5 10.00 Overcast OVC100 46.4 28.4 50% 45 29.92 0.0
06 23:55 NW 6 10.00 Overcast OVC100 46.4 28.4 50% 44 29.92 0.0
06 23:35 NW 7 10.00 Overcast OVC100 46.4 28.4 50% 43 29.92 0.0
06 23:15 W 7 10.00 Overcast OVC100 48.2 26.6 43% 46 29.92 0.0
06 22:55 W 7 10.00 Overcast OVC100 48.2 26.6 43% 46 29.92 0.0
06 22:35 W 8 10.00 Overcast OVC100 48.2 26.6 43% 45 29.92 0.0
06 22:15 W 8 10.00 Overcast FEW070 OVC100 48.2 26.6 43% 45 29.92 0.0
06 21:55 W 8 10.00 Overcast FEW070 OVC100 48.2 26.6 43% 45 29.91 0.0
06 21:35 W 9 10.00 Overcast OVC100 48.2 26.6 43% 45 29.91 0.0
06 21:15 W 7 10.00 Overcast FEW070 OVC090 50 26.6 40% 48 29.91 0.0
06 20:55 W 9 10.00 Overcast OVC090 50 24.8 37% 47 29.91 0.0
06 20:35 W 9 10.00 Overcast OVC080 50 26.6 40% 47 29.9 0.0
06 20:15 W 10 10.00 Overcast OVC080 50 24.8 37% 46 29.9 0.0
06 19:55 W 7 10.00 Overcast OVC080 51.8 24.8 56.1 50.9 35% 29.89 0.0
06 19:35 W 8 10.00 Overcast OVC080 51.8 24.8 35% 29.89 0.0
06 19:15 W 10 10.00 Overcast OVC075 51.8 24.8 35% 29.89 0.0
06 18:55 W 10 10.00 Overcast OVC075 51.8 24.8 35% 29.89 0.0
06 18:35 W 10 10.00 Overcast OVC075 51.8 24.8 35% 29.89 0.0
06 18:15 W 10 G 17 10.00 Overcast OVC075 51.8 24.8 35% 29.89 0.0
06 17:55 W 14 10.00 Overcast OVC075 53.6 24.8 33% 29.89 0.0
06 17:35 NW 12 10.00 Overcast OVC075 53.6 24.8 33% 29.89 0.0
Date Time (edt) Wind (mph) Vis. (mi.) Weather Sky Cond. Air Dwpt Max. Min. Relative Humidity Wind Chill (°F) Heat Index (°F) altimeter (in) sea level (mb) 1 hr 3 hr 6 hr
6 hour
Temperature (ºF) Pressure Precipitation (in)